Marshall Don Hunter Sr Airport
PADM : now visible

Airfield :











YOU CAN JOIN US ON...

 
LOGIN :

Register | Disclaimer

   EN    FR    IT 

 









Legend :    VFR   Marginal VFR   IFR   Intensive IFR   Very Intensive IFR
Visi :
Ceiling :
>= 8 km
>= 3000ft
5 to 8 km
1000 to 3000 ft
1500m to 5 km
500 to 1000 ft
800 to 1500m
200 to 500 ft
< 800m
< 200 ft
Symbols :   Thunderstorms  Fog  Heavy snow  Heavy precipitations  Wind > 20 kt






- Airport Elevation : 103 ft


PADM - Marshall Don Hunter Sr

CURRENT METAR :
  • 151802Z AUTO 07012KT 10SM CLR M05/M08 A2930 RMK AO2 SLP927 T10501083 10000 21050 53003 FZRANO

EXPIRED METARs :
  • 151702Z AUTO 07021G25KT 10SM CLR M04/M08 A2928 RMK AO2 SLP923 T10391078 FZRANO
  • 151602Z AUTO 06019KT 10SM CLR M03/M08 A2928 RMK AO2 SLP922 T10331078 FZRANO

TAF N/A



MET'MAP, your aeronautical weather chart ! - Copyright ORBIFLY December 2007 - Disclaimer

ORBIFLY MET'MAP TEAM :

Programming & Development : Alexandra Zaïnal
Concept & Development : Baudouin d'Aumeries
Co-Development & Prog : Marc-Olivier Méhu
Technical & hardware support : Manuel Goepfert

Contact : metmap@orbifly.com




SOURCES & CREDITS :

   NOAA       Earth
Advisory